sensor_id;sensor_type;location;lat;lon;timestamp;P1;durP1;ratioP1;P2;durP2;ratioP2
62880;SDS011;48969;49.934;8.596;2022-07-10T00:00:28;4.55;;;3.25;;
62880;SDS011;48969;49.934;8.596;2022-07-10T00:02:57;10.52;;;3.13;;
62880;SDS011;48969;49.934;8.596;2022-07-10T00:05:23;3.38;;;2.78;;
62880;SDS011;48969;49.934;8.596;2022-07-10T00:07:49;4.82;;;3.03;;
62880;SDS011;48969;49.934;8.596;2022-07-10T00:10:16;15.25;;;4.25;;
62880;SDS011;48969;49.934;8.596;2022-07-10T00:12:42;3.63;;;2.58;;
62880;SDS011;48969;49.934;8.596;2022-07-10T00:15:08;4.13;;;3.10;;
62880;SDS011;48969;49.934;8.596;2022-07-10T00:17:34;5.05;;;2.50;;
62880;SDS011;48969;49.934;8.596;2022-07-10T00:20:01;6.07;;;2.58;;
62880;SDS011;48969;49.934;8.596;2022-07-10T00:22:26;5.45;;;2.90;;
62880;SDS011;48969;49.934;8.596;2022-07-10T00:24:52;5.07;;;2.63;;
62880;SDS011;48969;49.934;8.596;2022-07-10T00:27:17;6.90;;;2.80;;
62880;SDS011;48969;49.934;8.596;2022-07-10T00:29:43;4.97;;;2.80;;
62880;SDS011;48969;49.934;8.596;2022-07-10T00:32:09;3.75;;;2.90;;
62880;SDS011;48969;49.934;8.596;2022-07-10T00:34:34;3.63;;;2.47;;
62880;SDS011;48969;49.934;8.596;2022-07-10T00:37:00;4.70;;;2.88;;
62880;SDS011;48969;49.934;8.596;2022-07-10T00:39:26;3.03;;;2.45;;
62880;SDS011;48969;49.934;8.596;2022-07-10T00:41:51;3.25;;;2.70;;
62880;SDS011;48969;49.934;8.596;2022-07-10T00:44:17;3.53;;;2.83;;
62880;SDS011;48969;49.934;8.596;2022-07-10T00:46:42;4.22;;;3.03;;
62880;SDS011;48969;49.934;8.596;2022-07-10T00:49:07;6.65;;;2.97;;
62880;SDS011;48969;49.934;8.596;2022-07-10T00:51:33;3.75;;;2.60;;
62880;SDS011;48969;49.934;8.596;2022-07-10T00:53:58;3.30;;;2.63;;
62880;SDS011;48969;49.934;8.596;2022-07-10T00:56:25;4.15;;;3.10;;
62880;SDS011;48969;49.934;8.596;2022-07-10T00:58:51;4.15;;;2.60;;
62880;SDS011;48969;49.934;8.596;2022-07-10T01:01:17;4.18;;;3.40;;
62880;SDS011;48969;49.934;8.596;2022-07-10T01:03:43;4.32;;;3.13;;
62880;SDS011;48969;49.934;8.596;2022-07-10T01:06:13;3.47;;;2.58;;
62880;SDS011;48969;49.934;8.596;2022-07-10T01:08:39;5.68;;;3.70;;
62880;SDS011;48969;49.934;8.596;2022-07-10T01:11:05;4.05;;;2.90;;
62880;SDS011;48969;49.934;8.596;2022-07-10T01:13:30;7.07;;;2.80;;
62880;SDS011;48969;49.934;8.596;2022-07-10T01:15:56;3.53;;;2.55;;
62880;SDS011;48969;49.934;8.596;2022-07-10T01:18:22;3.42;;;2.38;;
62880;SDS011;48969;49.934;8.596;2022-07-10T01:20:54;4.50;;;2.90;;
62880;SDS011;48969;49.934;8.596;2022-07-10T01:23:21;3.28;;;2.78;;
62880;SDS011;48969;49.934;8.596;2022-07-10T01:25:49;3.67;;;2.50;;
62880;SDS011;48969;49.934;8.596;2022-07-10T01:28:19;4.20;;;2.78;;
62880;SDS011;48969;49.934;8.596;2022-07-10T01:30:46;3.50;;;2.55;;
62880;SDS011;48969;49.934;8.596;2022-07-10T01:33:12;3.90;;;2.47;;
62880;SDS011;48969;49.934;8.596;2022-07-10T01:35:38;3.97;;;2.90;;
62880;SDS011;48969;49.934;8.596;2022-07-10T01:38:03;3.70;;;2.50;;
62880;SDS011;48969;49.934;8.596;2022-07-10T01:40:29;2.90;;;2.50;;
62880;SDS011;48969;49.934;8.596;2022-07-10T01:42:54;6.60;;;2.60;;
62880;SDS011;48969;49.934;8.596;2022-07-10T01:45:19;2.50;;;2.30;;
62880;SDS011;48969;49.934;8.596;2022-07-10T01:47:45;5.55;;;2.72;;
62880;SDS011;48969;49.934;8.596;2022-07-10T01:50:10;5.63;;;2.78;;
62880;SDS011;48969;49.934;8.596;2022-07-10T01:52:36;3.80;;;2.63;;
62880;SDS011;48969;49.934;8.596;2022-07-10T01:55:02;3.63;;;2.47;;
62880;SDS011;48969;49.934;8.596;2022-07-10T01:57:28;2.45;;;2.20;;
62880;SDS011;48969;49.934;8.596;2022-07-10T01:59:53;6.88;;;2.70;;
62880;SDS011;48969;49.934;8.596;2022-07-10T02:02:18;3.75;;;2.50;;
62880;SDS011;48969;49.934;8.596;2022-07-10T02:04:44;3.63;;;2.58;;
62880;SDS011;48969;49.934;8.596;2022-07-10T02:07:10;4.38;;;2.30;;
62880;SDS011;48969;49.934;8.596;2022-07-10T02:09:37;3.97;;;2.60;;
62880;SDS011;48969;49.934;8.596;2022-07-10T02:12:06;2.83;;;2.28;;
62880;SDS011;48969;49.934;8.596;2022-07-10T02:14:33;3.70;;;2.20;;
62880;SDS011;48969;49.934;8.596;2022-07-10T02:16:58;4.28;;;1.85;;
62880;SDS011;48969;49.934;8.596;2022-07-10T02:19:24;4.18;;;2.20;;
62880;SDS011;48969;49.934;8.596;2022-07-10T02:21:49;3.45;;;2.50;;
62880;SDS011;48969;49.934;8.596;2022-07-10T02:24:16;2.95;;;2.30;;
62880;SDS011;48969;49.934;8.596;2022-07-10T02:26:41;3.15;;;2.00;;
62880;SDS011;48969;49.934;8.596;2022-07-10T02:29:07;3.80;;;2.00;;
62880;SDS011;48969;49.934;8.596;2022-07-10T02:31:32;2.45;;;1.77;;
62880;SDS011;48969;49.934;8.596;2022-07-10T02:33:59;4.70;;;2.30;;
62880;SDS011;48969;49.934;8.596;2022-07-10T02:36:25;3.58;;;2.03;;
62880;SDS011;48969;49.934;8.596;2022-07-10T02:38:51;4.50;;;2.00;;
62880;SDS011;48969;49.934;8.596;2022-07-10T02:41:16;3.85;;;1.90;;
62880;SDS011;48969;49.934;8.596;2022-07-10T02:43:41;4.63;;;1.88;;
62880;SDS011;48969;49.934;8.596;2022-07-10T02:46:06;6.50;;;2.15;;
62880;SDS011;48969;49.934;8.596;2022-07-10T02:48:32;5.00;;;2.05;;
62880;SDS011;48969;49.934;8.596;2022-07-10T02:50:57;3.92;;;1.85;;
62880;SDS011;48969;49.934;8.596;2022-07-10T02:53:23;3.53;;;1.88;;
62880;SDS011;48969;49.934;8.596;2022-07-10T02:55:48;2.25;;;1.77;;
62880;SDS011;48969;49.934;8.596;2022-07-10T02:58:13;3.38;;;2.00;;
62880;SDS011;48969;49.934;8.596;2022-07-10T03:00:40;3.28;;;1.90;;
62880;SDS011;48969;49.934;8.596;2022-07-10T03:03:06;4.45;;;2.00;;
62880;SDS011;48969;49.934;8.596;2022-07-10T03:05:31;5.10;;;2.63;;
62880;SDS011;48969;49.934;8.596;2022-07-10T03:07:57;2.40;;;1.55;;
62880;SDS011;48969;49.934;8.596;2022-07-10T03:10:22;4.43;;;1.80;;
62880;SDS011;48969;49.934;8.596;2022-07-10T03:12:47;2.30;;;1.52;;
62880;SDS011;48969;49.934;8.596;2022-07-10T03:15:13;4.32;;;1.63;;
62880;SDS011;48969;49.934;8.596;2022-07-10T03:17:39;2.28;;;1.58;;
62880;SDS011;48969;49.934;8.596;2022-07-10T03:20:05;3.25;;;1.70;;
62880;SDS011;48969;49.934;8.596;2022-07-10T03:22:31;3.85;;;1.48;;
62880;SDS011;48969;49.934;8.596;2022-07-10T03:24:57;6.32;;;2.00;;
62880;SDS011;48969;49.934;8.596;2022-07-10T03:27:22;1.92;;;1.70;;
62880;SDS011;48969;49.934;8.596;2022-07-10T03:32:15;4.60;;;2.20;;
62880;SDS011;48969;49.934;8.596;2022-07-10T03:34:41;5.28;;;2.38;;
62880;SDS011;48969;49.934;8.596;2022-07-10T03:37:06;3.55;;;1.80;;
62880;SDS011;48969;49.934;8.596;2022-07-10T03:39:32;3.88;;;2.00;;
62880;SDS011;48969;49.934;8.596;2022-07-10T03:41:58;5.43;;;2.00;;
62880;SDS011;48969;49.934;8.596;2022-07-10T03:44:23;2.58;;;1.90;;
62880;SDS011;48969;49.934;8.596;2022-07-10T03:46:49;2.53;;;1.48;;
62880;SDS011;48969;49.934;8.596;2022-07-10T03:49:14;3.42;;;1.80;;
62880;SDS011;48969;49.934;8.596;2022-07-10T03:51:40;5.68;;;1.60;;
62880;SDS011;48969;49.934;8.596;2022-07-10T03:54:05;4.65;;;1.90;;
62880;SDS011;48969;49.934;8.596;2022-07-10T03:56:30;2.67;;;1.70;;
62880;SDS011;48969;49.934;8.596;2022-07-10T03:59:09;4.13;;;1.60;;
62880;SDS011;48969;49.934;8.596;2022-07-10T04:01:34;4.75;;;1.80;;
62880;SDS011;48969;49.934;8.596;2022-07-10T04:03:59;4.82;;;1.83;;
62880;SDS011;48969;49.934;8.596;2022-07-10T04:06:25;2.78;;;1.40;;
62880;SDS011;48969;49.934;8.596;2022-07-10T04:08:50;1.88;;;1.45;;
62880;SDS011;48969;49.934;8.596;2022-07-10T04:11:15;3.08;;;1.73;;
62880;SDS011;48969;49.934;8.596;2022-07-10T04:13:40;3.25;;;1.40;;
62880;SDS011;48969;49.934;8.596;2022-07-10T04:16:06;4.03;;;1.80;;
62880;SDS011;48969;49.934;8.596;2022-07-10T04:18:31;2.45;;;1.60;;
62880;SDS011;48969;49.934;8.596;2022-07-10T04:20:57;4.00;;;1.70;;
62880;SDS011;48969;49.934;8.596;2022-07-10T04:23:22;3.78;;;1.50;;
62880;SDS011;48969;49.934;8.596;2022-07-10T04:28:15;3.22;;;1.58;;
62880;SDS011;48969;49.934;8.596;2022-07-10T04:30:40;4.32;;;1.58;;
62880;SDS011;48969;49.934;8.596;2022-07-10T04:33:06;3.65;;;2.20;;
62880;SDS011;48969;49.934;8.596;2022-07-10T04:35:31;3.20;;;1.48;;
62880;SDS011;48969;49.934;8.596;2022-07-10T04:37:56;2.80;;;1.75;;
62880;SDS011;48969;49.934;8.596;2022-07-10T04:40:22;1.60;;;1.45;;
62880;SDS011;48969;49.934;8.596;2022-07-10T04:42:47;3.42;;;1.42;;
62880;SDS011;48969;49.934;8.596;2022-07-10T04:45:13;2.58;;;1.60;;
62880;SDS011;48969;49.934;8.596;2022-07-10T04:47:38;4.55;;;1.55;;
62880;SDS011;48969;49.934;8.596;2022-07-10T04:50:03;1.73;;;1.42;;
62880;SDS011;48969;49.934;8.596;2022-07-10T04:52:30;1.95;;;1.42;;
62880;SDS011;48969;49.934;8.596;2022-07-10T04:54:55;2.55;;;1.20;;
62880;SDS011;48969;49.934;8.596;2022-07-10T04:57:21;2.88;;;1.25;;
62880;SDS011;48969;49.934;8.596;2022-07-10T04:59:46;2.78;;;1.35;;
62880;SDS011;48969;49.934;8.596;2022-07-10T05:02:12;2.75;;;1.45;;
62880;SDS011;48969;49.934;8.596;2022-07-10T05:04:37;3.42;;;1.48;;
62880;SDS011;48969;49.934;8.596;2022-07-10T05:07:03;4.30;;;1.60;;
62880;SDS011;48969;49.934;8.596;2022-07-10T05:09:28;5.60;;;2.33;;
62880;SDS011;48969;49.934;8.596;2022-07-10T05:11:54;7.07;;;3.13;;
62880;SDS011;48969;49.934;8.596;2022-07-10T05:14:19;10.93;;;3.67;;
62880;SDS011;48969;49.934;8.596;2022-07-10T05:16:44;8.20;;;3.30;;
62880;SDS011;48969;49.934;8.596;2022-07-10T05:19:10;6.53;;;2.00;;
62880;SDS011;48969;49.934;8.596;2022-07-10T05:21:35;3.78;;;1.50;;
62880;SDS011;48969;49.934;8.596;2022-07-10T05:24:00;6.50;;;1.40;;
62880;SDS011;48969;49.934;8.596;2022-07-10T05:26:26;6.22;;;1.60;;
62880;SDS011;48969;49.934;8.596;2022-07-10T05:28:51;3.70;;;1.33;;
62880;SDS011;48969;49.934;8.596;2022-07-10T05:31:17;2.72;;;1.20;;
62880;SDS011;48969;49.934;8.596;2022-07-10T05:33:42;4.00;;;1.20;;
62880;SDS011;48969;49.934;8.596;2022-07-10T05:36:08;2.88;;;1.23;;
62880;SDS011;48969;49.934;8.596;2022-07-10T05:38:34;5.13;;;1.67;;
62880;SDS011;48969;49.934;8.596;2022-07-10T05:40:59;8.20;;;2.50;;
62880;SDS011;48969;49.934;8.596;2022-07-10T05:43:24;9.48;;;2.88;;
62880;SDS011;48969;49.934;8.596;2022-07-10T05:45:50;7.40;;;1.65;;
62880;SDS011;48969;49.934;8.596;2022-07-10T05:48:15;4.65;;;1.63;;
62880;SDS011;48969;49.934;8.596;2022-07-10T05:50:42;4.75;;;1.33;;
62880;SDS011;48969;49.934;8.596;2022-07-10T05:53:07;3.28;;;1.10;;
62880;SDS011;48969;49.934;8.596;2022-07-10T05:55:32;2.58;;;1.10;;
62880;SDS011;48969;49.934;8.596;2022-07-10T05:57:58;2.67;;;1.15;;
62880;SDS011;48969;49.934;8.596;2022-07-10T06:00:24;3.10;;;1.50;;
62880;SDS011;48969;49.934;8.596;2022-07-10T06:02:50;2.25;;;1.05;;
62880;SDS011;48969;49.934;8.596;2022-07-10T06:05:15;4.57;;;1.20;;
62880;SDS011;48969;49.934;8.596;2022-07-10T06:07:40;2.67;;;0.93;;
62880;SDS011;48969;49.934;8.596;2022-07-10T06:10:06;2.08;;;1.23;;
62880;SDS011;48969;49.934;8.596;2022-07-10T06:12:32;2.13;;;1.10;;
62880;SDS011;48969;49.934;8.596;2022-07-10T06:14:58;3.00;;;1.10;;
62880;SDS011;48969;49.934;8.596;2022-07-10T06:17:23;3.03;;;1.30;;
62880;SDS011;48969;49.934;8.596;2022-07-10T06:19:48;3.08;;;1.20;;
62880;SDS011;48969;49.934;8.596;2022-07-10T06:22:14;4.88;;;0.85;;
62880;SDS011;48969;49.934;8.596;2022-07-10T06:27:26;2.25;;;0.80;;
62880;SDS011;48969;49.934;8.596;2022-07-10T06:29:52;1.58;;;0.75;;
62880;SDS011;48969;49.934;8.596;2022-07-10T06:32:17;2.05;;;0.70;;
62880;SDS011;48969;49.934;8.596;2022-07-10T06:34:43;3.92;;;0.80;;
62880;SDS011;48969;49.934;8.596;2022-07-10T06:37:08;1.88;;;0.80;;
62880;SDS011;48969;49.934;8.596;2022-07-10T06:42:05;2.22;;;0.80;;
62880;SDS011;48969;49.934;8.596;2022-07-10T06:44:31;2.88;;;0.80;;
62880;SDS011;48969;49.934;8.596;2022-07-10T06:46:57;3.35;;;0.98;;
62880;SDS011;48969;49.934;8.596;2022-07-10T06:49:42;2.08;;;0.90;;
62880;SDS011;48969;49.934;8.596;2022-07-10T06:52:10;4.28;;;0.88;;
62880;SDS011;48969;49.934;8.596;2022-07-10T06:54:36;2.97;;;0.80;;
62880;SDS011;48969;49.934;8.596;2022-07-10T06:57:01;1.90;;;0.68;;
62880;SDS011;48969;49.934;8.596;2022-07-10T06:59:27;2.67;;;0.85;;
62880;SDS011;48969;49.934;8.596;2022-07-10T07:01:53;2.78;;;0.70;;
62880;SDS011;48969;49.934;8.596;2022-07-10T07:04:18;4.30;;;0.93;;
62880;SDS011;48969;49.934;8.596;2022-07-10T07:06:44;2.13;;;0.75;;
62880;SDS011;48969;49.934;8.596;2022-07-10T07:09:09;1.25;;;0.90;;
62880;SDS011;48969;49.934;8.596;2022-07-10T07:11:34;2.65;;;0.75;;
62880;SDS011;48969;49.934;8.596;2022-07-10T07:13:59;2.40;;;0.95;;
62880;SDS011;48969;49.934;8.596;2022-07-10T07:16:25;2.42;;;0.90;;
62880;SDS011;48969;49.934;8.596;2022-07-10T07:19:03;6.15;;;1.20;;
62880;SDS011;48969;49.934;8.596;2022-07-10T07:21:30;4.40;;;1.00;;
62880;SDS011;48969;49.934;8.596;2022-07-10T07:24:15;5.05;;;1.02;;
62880;SDS011;48969;49.934;8.596;2022-07-10T07:26:40;2.83;;;0.68;;
62880;SDS011;48969;49.934;8.596;2022-07-10T07:29:06;4.90;;;0.77;;
62880;SDS011;48969;49.934;8.596;2022-07-10T07:31:31;3.35;;;0.77;;
62880;SDS011;48969;49.934;8.596;2022-07-10T07:33:57;8.05;;;1.00;;
62880;SDS011;48969;49.934;8.596;2022-07-10T07:36:22;2.85;;;0.63;;
62880;SDS011;48969;49.934;8.596;2022-07-10T07:38:48;4.63;;;0.65;;
62880;SDS011;48969;49.934;8.596;2022-07-10T07:41:13;3.28;;;0.85;;
62880;SDS011;48969;49.934;8.596;2022-07-10T07:43:40;4.55;;;0.70;;
62880;SDS011;48969;49.934;8.596;2022-07-10T07:46:05;1.92;;;0.75;;
62880;SDS011;48969;49.934;8.596;2022-07-10T07:48:30;4.32;;;0.80;;
62880;SDS011;48969;49.934;8.596;2022-07-10T07:50:56;1.42;;;0.52;;
62880;SDS011;48969;49.934;8.596;2022-07-10T07:53:21;2.70;;;1.20;;
62880;SDS011;48969;49.934;8.596;2022-07-10T07:55:46;3.22;;;0.75;;
62880;SDS011;48969;49.934;8.596;2022-07-10T07:58:12;3.75;;;0.77;;
62880;SDS011;48969;49.934;8.596;2022-07-10T08:00:37;2.42;;;0.50;;
62880;SDS011;48969;49.934;8.596;2022-07-10T08:03:02;5.05;;;0.77;;
62880;SDS011;48969;49.934;8.596;2022-07-10T08:07:56;4.53;;;0.90;;
62880;SDS011;48969;49.934;8.596;2022-07-10T08:10:31;4.57;;;0.80;;
62880;SDS011;48969;49.934;8.596;2022-07-10T08:12:57;3.40;;;0.60;;
62880;SDS011;48969;49.934;8.596;2022-07-10T08:15:22;3.10;;;0.68;;
62880;SDS011;48969;49.934;8.596;2022-07-10T08:17:48;3.75;;;1.10;;
62880;SDS011;48969;49.934;8.596;2022-07-10T08:20:14;5.43;;;1.00;;
62880;SDS011;48969;49.934;8.596;2022-07-10T08:22:40;3.75;;;0.70;;
62880;SDS011;48969;49.934;8.596;2022-07-10T08:25:07;3.30;;;1.35;;
62880;SDS011;48969;49.934;8.596;2022-07-10T08:27:33;1.92;;;0.70;;
62880;SDS011;48969;49.934;8.596;2022-07-10T08:29:58;4.82;;;0.80;;
62880;SDS011;48969;49.934;8.596;2022-07-10T08:32:24;3.58;;;1.05;;
62880;SDS011;48969;49.934;8.596;2022-07-10T08:34:49;2.78;;;0.80;;
62880;SDS011;48969;49.934;8.596;2022-07-10T08:37:15;5.07;;;1.00;;
62880;SDS011;48969;49.934;8.596;2022-07-10T08:39:40;3.45;;;0.80;;
62880;SDS011;48969;49.934;8.596;2022-07-10T08:42:06;2.20;;;0.80;;
62880;SDS011;48969;49.934;8.596;2022-07-10T08:44:35;5.72;;;1.02;;
62880;SDS011;48969;49.934;8.596;2022-07-10T08:47:01;3.80;;;0.80;;
62880;SDS011;48969;49.934;8.596;2022-07-10T08:49:28;2.33;;;0.90;;
62880;SDS011;48969;49.934;8.596;2022-07-10T08:51:58;2.88;;;0.65;;
62880;SDS011;48969;49.934;8.596;2022-07-10T08:54:29;2.15;;;0.70;;
62880;SDS011;48969;49.934;8.596;2022-07-10T08:56:57;6.22;;;0.90;;
62880;SDS011;48969;49.934;8.596;2022-07-10T08:59:24;1.48;;;0.70;;
62880;SDS011;48969;49.934;8.596;2022-07-10T09:01:50;2.90;;;0.77;;
62880;SDS011;48969;49.934;8.596;2022-07-10T09:04:19;3.78;;;0.80;;
62880;SDS011;48969;49.934;8.596;2022-07-10T09:06:45;4.47;;;0.80;;
62880;SDS011;48969;49.934;8.596;2022-07-10T09:09:11;2.25;;;0.65;;
62880;SDS011;48969;49.934;8.596;2022-07-10T09:11:38;2.88;;;0.73;;
62880;SDS011;48969;49.934;8.596;2022-07-10T09:14:06;1.85;;;0.82;;
62880;SDS011;48969;49.934;8.596;2022-07-10T09:16:34;4.10;;;0.70;;
62880;SDS011;48969;49.934;8.596;2022-07-10T09:19:19;2.78;;;0.50;;
62880;SDS011;48969;49.934;8.596;2022-07-10T09:21:51;2.38;;;0.70;;
62880;SDS011;48969;49.934;8.596;2022-07-10T09:24:18;6.45;;;1.13;;
62880;SDS011;48969;49.934;8.596;2022-07-10T09:29:19;2.53;;;0.75;;
62880;SDS011;48969;49.934;8.596;2022-07-10T09:31:47;4.00;;;0.77;;
62880;SDS011;48969;49.934;8.596;2022-07-10T09:34:16;4.32;;;0.60;;
62880;SDS011;48969;49.934;8.596;2022-07-10T09:36:42;3.10;;;0.80;;
62880;SDS011;48969;49.934;8.596;2022-07-10T09:39:08;7.88;;;1.30;;
62880;SDS011;48969;49.934;8.596;2022-07-10T09:41:33;4.35;;;1.00;;
62880;SDS011;48969;49.934;8.596;2022-07-10T09:46:30;2.40;;;0.73;;
62880;SDS011;48969;49.934;8.596;2022-07-10T09:49:01;5.05;;;1.00;;
62880;SDS011;48969;49.934;8.596;2022-07-10T09:51:26;5.75;;;0.90;;
62880;SDS011;48969;49.934;8.596;2022-07-10T09:53:55;5.43;;;0.98;;
62880;SDS011;48969;49.934;8.596;2022-07-10T09:56:21;2.47;;;0.68;;
62880;SDS011;48969;49.934;8.596;2022-07-10T09:58:48;3.13;;;0.88;;
62880;SDS011;48969;49.934;8.596;2022-07-10T10:01:17;4.72;;;1.00;;
62880;SDS011;48969;49.934;8.596;2022-07-10T10:03:44;2.53;;;1.00;;
62880;SDS011;48969;49.934;8.596;2022-07-10T10:06:16;2.72;;;0.90;;
62880;SDS011;48969;49.934;8.596;2022-07-10T10:08:53;2.97;;;0.90;;
62880;SDS011;48969;49.934;8.596;2022-07-10T10:11:24;5.13;;;1.00;;
62880;SDS011;48969;49.934;8.596;2022-07-10T10:13:51;4.47;;;1.00;;
62880;SDS011;48969;49.934;8.596;2022-07-10T10:16:18;3.10;;;1.00;;
62880;SDS011;48969;49.934;8.596;2022-07-10T10:18:45;2.83;;;1.02;;
62880;SDS011;48969;49.934;8.596;2022-07-10T10:21:30;3.65;;;1.13;;
62880;SDS011;48969;49.934;8.596;2022-07-10T10:23:56;3.80;;;0.90;;
62880;SDS011;48969;49.934;8.596;2022-07-10T10:26:21;4.47;;;1.05;;
62880;SDS011;48969;49.934;8.596;2022-07-10T10:28:48;4.43;;;0.98;;
62880;SDS011;48969;49.934;8.596;2022-07-10T10:31:16;4.07;;;1.30;;
62880;SDS011;48969;49.934;8.596;2022-07-10T10:33:43;4.07;;;1.23;;
62880;SDS011;48969;49.934;8.596;2022-07-10T10:36:43;3.60;;;1.20;;
62880;SDS011;48969;49.934;8.596;2022-07-10T10:41:39;5.88;;;1.10;;
62880;SDS011;48969;49.934;8.596;2022-07-10T10:46:31;4.20;;;1.60;;
62880;SDS011;48969;49.934;8.596;2022-07-10T10:49:06;2.30;;;0.90;;
62880;SDS011;48969;49.934;8.596;2022-07-10T10:54:28;3.08;;;1.10;;
62880;SDS011;48969;49.934;8.596;2022-07-10T10:59:46;3.55;;;1.00;;
62880;SDS011;48969;49.934;8.596;2022-07-10T11:04:52;3.60;;;1.08;;
62880;SDS011;48969;49.934;8.596;2022-07-10T11:08:02;3.33;;;1.10;;
62880;SDS011;48969;49.934;8.596;2022-07-10T11:10:44;5.20;;;1.10;;
62880;SDS011;48969;49.934;8.596;2022-07-10T11:13:11;5.75;;;1.42;;
62880;SDS011;48969;49.934;8.596;2022-07-10T11:18:16;5.47;;;1.70;;
62880;SDS011;48969;49.934;8.596;2022-07-10T11:20:45;4.53;;;1.33;;
62880;SDS011;48969;49.934;8.596;2022-07-10T11:26:07;7.53;;;1.50;;
62880;SDS011;48969;49.934;8.596;2022-07-10T11:28:52;3.05;;;1.00;;
62880;SDS011;48969;49.934;8.596;2022-07-10T11:31:19;2.38;;;1.13;;
62880;SDS011;48969;49.934;8.596;2022-07-10T11:33:47;3.38;;;1.10;;
62880;SDS011;48969;49.934;8.596;2022-07-10T11:36:15;3.63;;;1.23;;
62880;SDS011;48969;49.934;8.596;2022-07-10T11:38:43;3.38;;;0.90;;
62880;SDS011;48969;49.934;8.596;2022-07-10T11:41:16;2.58;;;1.27;;
62880;SDS011;48969;49.934;8.596;2022-07-10T11:46:31;2.90;;;1.05;;
62880;SDS011;48969;49.934;8.596;2022-07-10T11:48:58;3.25;;;1.52;;
62880;SDS011;48969;49.934;8.596;2022-07-10T11:51:33;9.73;;;1.30;;
62880;SDS011;48969;49.934;8.596;2022-07-10T12:01:46;2.53;;;1.10;;
62880;SDS011;48969;49.934;8.596;2022-07-10T12:04:13;1.83;;;0.98;;
62880;SDS011;48969;49.934;8.596;2022-07-10T12:06:41;2.88;;;1.30;;
62880;SDS011;48969;49.934;8.596;2022-07-10T12:09:08;7.13;;;1.63;;
62880;SDS011;48969;49.934;8.596;2022-07-10T12:11:36;3.00;;;0.93;;
62880;SDS011;48969;49.934;8.596;2022-07-10T12:14:12;2.58;;;1.20;;
62880;SDS011;48969;49.934;8.596;2022-07-10T12:16:42;3.05;;;1.17;;
62880;SDS011;48969;49.934;8.596;2022-07-10T12:25:13;3.17;;;1.15;;
62880;SDS011;48969;49.934;8.596;2022-07-10T12:27:39;2.85;;;1.02;;
62880;SDS011;48969;49.934;8.596;2022-07-10T12:30:05;5.93;;;1.30;;
62880;SDS011;48969;49.934;8.596;2022-07-10T12:32:31;2.97;;;1.10;;
62880;SDS011;48969;49.934;8.596;2022-07-10T12:34:58;3.55;;;1.02;;
62880;SDS011;48969;49.934;8.596;2022-07-10T12:37:23;3.67;;;0.90;;
62880;SDS011;48969;49.934;8.596;2022-07-10T12:39:50;2.63;;;1.10;;
62880;SDS011;48969;49.934;8.596;2022-07-10T12:42:24;3.33;;;1.00;;
62880;SDS011;48969;49.934;8.596;2022-07-10T12:44:50;3.25;;;0.85;;
62880;SDS011;48969;49.934;8.596;2022-07-10T12:47:16;3.13;;;0.85;;
62880;SDS011;48969;49.934;8.596;2022-07-10T12:49:52;4.47;;;1.40;;
62880;SDS011;48969;49.934;8.596;2022-07-10T12:52:37;4.47;;;1.40;;
62880;SDS011;48969;49.934;8.596;2022-07-10T12:55:13;4.78;;;1.05;;
62880;SDS011;48969;49.934;8.596;2022-07-10T12:57:59;6.15;;;1.20;;
62880;SDS011;48969;49.934;8.596;2022-07-10T13:00:30;3.17;;;1.13;;
62880;SDS011;48969;49.934;8.596;2022-07-10T13:05:43;2.50;;;1.05;;
62880;SDS011;48969;49.934;8.596;2022-07-10T13:10:37;3.92;;;0.80;;
62880;SDS011;48969;49.934;8.596;2022-07-10T13:13:04;2.92;;;0.80;;
62880;SDS011;48969;49.934;8.596;2022-07-10T13:15:30;2.47;;;0.82;;
62880;SDS011;48969;49.934;8.596;2022-07-10T13:17:56;3.05;;;1.00;;
62880;SDS011;48969;49.934;8.596;2022-07-10T13:20:21;3.50;;;1.10;;
62880;SDS011;48969;49.934;8.596;2022-07-10T13:22:47;2.45;;;1.00;;
62880;SDS011;48969;49.934;8.596;2022-07-10T13:25:12;4.57;;;0.80;;
62880;SDS011;48969;49.934;8.596;2022-07-10T13:27:38;4.30;;;0.90;;
62880;SDS011;48969;49.934;8.596;2022-07-10T13:30:04;1.30;;;0.70;;
62880;SDS011;48969;49.934;8.596;2022-07-10T13:32:30;2.72;;;0.90;;
62880;SDS011;48969;49.934;8.596;2022-07-10T13:34:55;6.97;;;1.40;;
62880;SDS011;48969;49.934;8.596;2022-07-10T13:37:20;2.55;;;0.80;;
62880;SDS011;48969;49.934;8.596;2022-07-10T13:39:46;2.45;;;0.70;;
62880;SDS011;48969;49.934;8.596;2022-07-10T13:42:11;8.07;;;1.10;;
62880;SDS011;48969;49.934;8.596;2022-07-10T13:44:37;4.18;;;1.02;;
62880;SDS011;48969;49.934;8.596;2022-07-10T13:47:02;8.30;;;1.00;;
62880;SDS011;48969;49.934;8.596;2022-07-10T13:49:29;3.60;;;0.82;;
62880;SDS011;48969;49.934;8.596;2022-07-10T13:51:55;2.90;;;0.98;;
62880;SDS011;48969;49.934;8.596;2022-07-10T13:54:21;2.33;;;1.00;;
62880;SDS011;48969;49.934;8.596;2022-07-10T13:56:46;1.48;;;0.80;;
62880;SDS011;48969;49.934;8.596;2022-07-10T13:59:11;3.15;;;0.80;;
62880;SDS011;48969;49.934;8.596;2022-07-10T14:01:37;1.70;;;0.80;;
62880;SDS011;48969;49.934;8.596;2022-07-10T14:04:02;3.88;;;0.82;;
62880;SDS011;48969;49.934;8.596;2022-07-10T14:06:28;4.40;;;0.80;;
62880;SDS011;48969;49.934;8.596;2022-07-10T14:08:53;1.80;;;0.77;;
62880;SDS011;48969;49.934;8.596;2022-07-10T14:11:18;2.13;;;0.68;;
62880;SDS011;48969;49.934;8.596;2022-07-10T14:13:44;1.88;;;0.70;;
62880;SDS011;48969;49.934;8.596;2022-07-10T14:16:10;2.40;;;0.60;;
62880;SDS011;48969;49.934;8.596;2022-07-10T14:18:35;2.90;;;0.82;;
62880;SDS011;48969;49.934;8.596;2022-07-10T14:21:03;1.70;;;0.77;;
62880;SDS011;48969;49.934;8.596;2022-07-10T14:23:29;2.95;;;0.73;;
62880;SDS011;48969;49.934;8.596;2022-07-10T14:25:55;1.83;;;0.73;;
62880;SDS011;48969;49.934;8.596;2022-07-10T14:28:20;7.38;;;1.15;;
62880;SDS011;48969;49.934;8.596;2022-07-10T14:30:46;2.42;;;0.70;;
62880;SDS011;48969;49.934;8.596;2022-07-10T14:33:11;2.33;;;0.80;;
62880;SDS011;48969;49.934;8.596;2022-07-10T14:35:37;2.88;;;0.77;;
62880;SDS011;48969;49.934;8.596;2022-07-10T14:38:02;1.80;;;0.88;;
62880;SDS011;48969;49.934;8.596;2022-07-10T14:40:27;0.88;;;0.70;;
62880;SDS011;48969;49.934;8.596;2022-07-10T14:42:53;2.60;;;0.80;;
62880;SDS011;48969;49.934;8.596;2022-07-10T14:45:21;1.67;;;0.82;;
62880;SDS011;48969;49.934;8.596;2022-07-10T14:47:48;2.28;;;0.90;;
62880;SDS011;48969;49.934;8.596;2022-07-10T14:50:14;2.22;;;0.57;;
62880;SDS011;48969;49.934;8.596;2022-07-10T14:52:42;2.35;;;0.70;;
62880;SDS011;48969;49.934;8.596;2022-07-10T14:55:09;1.30;;;0.60;;
62880;SDS011;48969;49.934;8.596;2022-07-10T14:57:37;4.38;;;0.70;;
62880;SDS011;48969;49.934;8.596;2022-07-10T15:00:03;2.83;;;1.00;;
62880;SDS011;48969;49.934;8.596;2022-07-10T15:02:29;2.10;;;0.70;;
62880;SDS011;48969;49.934;8.596;2022-07-10T15:04:54;1.17;;;0.60;;
62880;SDS011;48969;49.934;8.596;2022-07-10T15:07:19;1.38;;;0.60;;
62880;SDS011;48969;49.934;8.596;2022-07-10T15:09:45;3.42;;;0.93;;
62880;SDS011;48969;49.934;8.596;2022-07-10T15:12:10;2.90;;;0.77;;
62880;SDS011;48969;49.934;8.596;2022-07-10T15:14:36;1.77;;;0.52;;
62880;SDS011;48969;49.934;8.596;2022-07-10T15:17:01;2.55;;;0.80;;
62880;SDS011;48969;49.934;8.596;2022-07-10T15:19:27;4.55;;;1.35;;
62880;SDS011;48969;49.934;8.596;2022-07-10T15:21:53;2.17;;;1.10;;
62880;SDS011;48969;49.934;8.596;2022-07-10T15:24:18;12.13;;;4.03;;
62880;SDS011;48969;49.934;8.596;2022-07-10T15:26:44;1.60;;;0.90;;
62880;SDS011;48969;49.934;8.596;2022-07-10T15:29:09;2.97;;;0.90;;
62880;SDS011;48969;49.934;8.596;2022-07-10T15:31:35;0.93;;;0.60;;
62880;SDS011;48969;49.934;8.596;2022-07-10T15:34:02;1.02;;;0.63;;
62880;SDS011;48969;49.934;8.596;2022-07-10T15:36:32;1.15;;;0.60;;
62880;SDS011;48969;49.934;8.596;2022-07-10T15:38:57;1.95;;;0.70;;
62880;SDS011;48969;49.934;8.596;2022-07-10T15:41:23;1.63;;;0.60;;
62880;SDS011;48969;49.934;8.596;2022-07-10T15:43:48;2.45;;;0.73;;